createdAt,value
2022-09-22T00:01:30.738Z,12.44
2022-09-22T00:04:01.595Z,12.71
2022-09-22T00:06:31.997Z,12.87
2022-09-22T00:09:02.643Z,12.57
2022-09-22T00:11:31.711Z,12.94
2022-09-22T00:14:01.604Z,13.06
2022-09-22T00:16:31.862Z,13.22
2022-09-22T00:19:00.294Z,13.18
2022-09-22T00:21:30.871Z,12.98
2022-09-22T00:23:59.019Z,12.97
2022-09-22T00:26:28.728Z,12.91
2022-09-22T00:28:57.080Z,12.86
2022-09-22T00:31:26.585Z,12.27
2022-09-22T00:33:55.748Z,12.36
2022-09-22T00:36:25.705Z,12.06
2022-09-22T00:38:55.519Z,12.22
2022-09-22T00:41:25.882Z,12.10
2022-09-22T00:44:32.852Z,12.61
2022-09-22T00:47:06.721Z,12.36
2022-09-22T00:49:40.011Z,12.74
2022-09-22T00:52:08.465Z,12.74
2022-09-22T00:54:36.763Z,12.37
2022-09-22T00:57:11.265Z,12.59
2022-09-22T00:59:40.446Z,12.50
2022-09-22T01:02:10.226Z,12.05
2022-09-22T01:04:38.615Z,11.99
2022-09-22T01:07:07.206Z,11.75
2022-09-22T01:09:35.903Z,11.93
2022-09-22T01:12:05.399Z,11.82
2022-09-22T01:14:43.973Z,11.88
2022-09-22T01:17:21.984Z,11.99
2022-09-22T01:20:06.688Z,12.23
2022-09-22T01:22:55.769Z,11.79
2022-09-22T01:25:39.757Z,12.46
2022-09-22T01:28:26.122Z,12.51
2022-09-22T01:30:59.261Z,11.73
2022-09-22T01:33:35.265Z,11.56
2022-09-22T01:36:14.531Z,11.45
2022-09-22T01:38:49.250Z,11.50
2022-09-22T01:41:20.988Z,11.81
2022-09-22T01:43:52.454Z,11.47
2022-09-22T01:46:26.202Z,11.67
2022-09-22T01:48:56.813Z,11.79
2022-09-22T01:51:28.339Z,11.60
2022-09-22T01:54:03.131Z,11.77
2022-09-22T01:56:32.554Z,11.86
2022-09-22T01:59:04.202Z,12.10
2022-09-22T02:01:38.917Z,12.18
2022-09-22T02:04:10.856Z,12.21
2022-09-22T02:06:42.352Z,12.18
2022-09-22T02:09:12.115Z,11.83
2022-09-22T02:11:41.076Z,11.36
2022-09-22T02:14:09.875Z,11.02
2022-09-22T02:16:39.570Z,11.09
2022-09-22T02:19:13.495Z,11.15
2022-09-22T02:21:44.755Z,11.50
2022-09-22T02:24:28.249Z,11.84
2022-09-22T02:26:57.890Z,11.46
2022-09-22T02:29:27.730Z,11.37
2022-09-22T02:31:58.161Z,11.52
2022-09-22T02:34:26.609Z,11.64
2022-09-22T02:36:59.435Z,11.62
2022-09-22T02:39:30.459Z,11.50
2022-09-22T02:42:11.543Z,11.34
2022-09-22T02:44:45.380Z,10.90
2022-09-22T02:47:18.882Z,11.43
2022-09-22T02:49:48.340Z,11.28
2022-09-22T02:52:20.334Z,10.44
2022-09-22T02:54:48.931Z,10.83
2022-09-22T02:57:17.242Z,10.71
2022-09-22T02:59:45.626Z,10.89
2022-09-22T03:02:15.608Z,10.69
2022-09-22T03:04:43.981Z,10.83
2022-09-22T03:07:13.248Z,11.16
2022-09-22T03:09:41.624Z,11.09
2022-09-22T03:12:09.957Z,11.34
2022-09-22T03:14:38.304Z,11.38
2022-09-22T03:17:06.629Z,11.48
2022-09-22T03:19:36.388Z,11.49
2022-09-22T03:22:05.118Z,10.89
2022-09-22T03:24:33.454Z,10.71
2022-09-22T03:27:01.823Z,10.30
2022-09-22T03:29:30.228Z,10.43
2022-09-22T03:31:58.526Z,10.44
2022-09-22T03:34:26.833Z,10.66
2022-09-22T03:36:56.684Z,10.82
2022-09-22T03:39:24.986Z,10.13
2022-09-22T03:41:53.339Z,10.16
2022-09-22T03:44:21.675Z,10.10
2022-09-22T03:46:49.974Z,10.51
2022-09-22T03:49:18.320Z,10.42
2022-09-22T03:51:46.691Z,10.69
2022-09-22T03:54:16.420Z,10.60
2022-09-22T03:56:44.788Z,10.51
2022-09-22T03:59:13.073Z,9.97
2022-09-22T04:01:41.639Z,9.93
2022-09-22T04:04:10.108Z,9.60
2022-09-22T04:06:38.874Z,9.57
2022-09-22T04:09:07.539Z,10.03
2022-09-22T04:11:37.593Z,10.61
2022-09-22T04:14:05.921Z,10.51
2022-09-22T04:16:34.258Z,10.52
2022-09-22T04:19:05.058Z,10.85
2022-09-22T04:21:33.524Z,10.31
2022-09-22T04:24:02.198Z,10.36
2022-09-22T04:26:30.530Z,10.58
2022-09-22T04:29:00.344Z,10.82
2022-09-22T04:31:28.771Z,10.61
2022-09-22T04:33:57.322Z,10.50
2022-09-22T04:36:25.851Z,10.77
2022-09-22T04:38:55.444Z,10.55
2022-09-22T04:41:24.290Z,10.61
2022-09-22T04:43:52.728Z,10.61
2022-09-22T04:46:22.678Z,10.95
2022-09-22T04:48:51.290Z,10.51
2022-09-22T04:51:19.700Z,10.69
2022-09-22T04:53:48.075Z,10.34
2022-09-22T04:56:16.574Z,10.23
2022-09-22T04:58:44.949Z,10.50
2022-09-22T05:01:13.503Z,10.89
2022-09-22T05:03:43.250Z,10.79
2022-09-22T05:06:11.679Z,10.32
2022-09-22T05:08:40.222Z,10.77
2022-09-22T05:11:09.725Z,10.91
2022-09-22T05:13:41.160Z,10.48
2022-09-22T05:16:09.856Z,10.34
2022-09-22T05:18:39.613Z,10.63
2022-09-22T05:21:09.454Z,10.42
2022-09-22T05:23:37.771Z,10.18
2022-09-22T05:26:06.890Z,10.16
2022-09-22T05:28:35.641Z,10.99
2022-09-22T05:31:04.249Z,11.07
2022-09-22T05:33:32.554Z,11.23
2022-09-22T05:36:00.911Z,11.24
2022-09-22T05:38:30.952Z,10.62
2022-09-22T05:40:59.313Z,10.99
2022-09-22T05:43:27.653Z,11.11
2022-09-22T05:45:56.044Z,10.96
2022-09-22T05:48:27.602Z,10.45
2022-09-22T05:50:59.371Z,11.62
2022-09-22T05:53:28.307Z,11.30
2022-09-22T05:56:00.188Z,11.54
2022-09-22T05:58:28.482Z,11.35
2022-09-22T06:00:57.500Z,11.43
2022-09-22T06:03:26.139Z,11.14
2022-09-22T06:05:54.502Z,10.31
2022-09-22T06:08:22.851Z,10.88
2022-09-22T06:10:51.422Z,10.81
2022-09-22T06:13:21.211Z,10.89
2022-09-22T06:15:49.843Z,10.77
2022-09-22T06:18:24.116Z,11.13
2022-09-22T06:20:56.329Z,11.68
2022-09-22T06:23:26.382Z,11.99
2022-09-22T06:25:58.282Z,12.48
2022-09-22T06:28:28.005Z,12.43
2022-09-22T06:31:00.017Z,12.67
2022-09-22T06:33:28.792Z,12.00
2022-09-22T06:35:58.209Z,11.46
2022-09-22T06:38:26.613Z,12.11
2022-09-22T06:41:00.661Z,12.66
2022-09-22T06:43:30.451Z,12.89
2022-09-22T06:46:03.074Z,12.85
2022-09-22T06:48:32.039Z,12.56
2022-09-22T06:51:00.313Z,12.63
2022-09-22T06:53:28.945Z,13.41
2022-09-22T06:55:59.123Z,13.59
2022-09-22T06:58:29.098Z,13.52
2022-09-22T07:01:08.914Z,13.46
2022-09-22T07:03:40.236Z,13.58
2022-09-22T07:06:09.563Z,13.59
2022-09-22T07:08:39.505Z,13.58
2022-09-22T07:11:09.118Z,14.91
2022-09-22T07:13:39.957Z,14.05
2022-09-22T07:16:11.346Z,13.93
2022-09-22T07:18:41.457Z,14.52
2022-09-22T07:21:11.750Z,15.18
2022-09-22T07:23:41.313Z,15.19
2022-09-22T07:26:12.286Z,15.72
2022-09-22T07:28:40.911Z,14.87
2022-09-22T07:31:12.693Z,15.73
2022-09-22T07:33:42.711Z,15.59
2022-09-22T07:36:14.023Z,15.73
2022-09-22T07:38:44.062Z,16.65
2022-09-22T07:41:13.608Z,17.09
2022-09-22T07:43:42.731Z,17.47
2022-09-22T07:46:13.371Z,16.74
2022-09-22T07:48:46.735Z,17.27
2022-09-22T07:51:20.082Z,16.79
2022-09-22T07:53:49.962Z,17.05
2022-09-22T07:56:21.263Z,17.23
2022-09-22T07:58:50.733Z,17.90
2022-09-22T08:01:21.366Z,16.49
2022-09-22T08:03:50.872Z,17.35
2022-09-22T08:06:23.605Z,17.96
2022-09-22T08:08:56.759Z,17.63
2022-09-22T08:11:27.684Z,17.44
2022-09-22T08:13:57.595Z,17.65
2022-09-22T08:16:29.448Z,17.61
2022-09-22T08:18:59.222Z,17.56
2022-09-22T08:21:30.004Z,17.83
2022-09-22T08:23:59.613Z,16.86
2022-09-22T08:26:28.147Z,17.00
2022-09-22T08:28:57.493Z,17.36
2022-09-22T08:31:28.299Z,17.99
2022-09-22T08:33:57.330Z,18.30
2022-09-22T08:36:27.696Z,18.48
2022-09-22T08:38:56.622Z,17.60
2022-09-22T08:41:31.342Z,18.64
2022-09-22T08:44:03.143Z,19.07
2022-09-22T08:46:34.306Z,18.67
2022-09-22T08:49:25.964Z,18.79
2022-09-22T08:51:56.235Z,18.19
2022-09-22T08:54:27.914Z,19.63
2022-09-22T08:57:04.273Z,19.28
2022-09-22T08:59:36.160Z,19.33
2022-09-22T09:02:26.830Z,18.85
2022-09-22T09:05:04.376Z,18.70
2022-09-22T09:07:44.019Z,18.95
2022-09-22T09:10:25.697Z,18.50
2022-09-22T09:13:02.763Z,19.14
2022-09-22T09:15:41.689Z,18.90
2022-09-22T09:18:16.327Z,19.53
2022-09-22T09:20:46.620Z,18.82
2022-09-22T09:23:18.898Z,18.90
2022-09-22T09:25:52.403Z,19.64
2022-09-22T09:28:27.011Z,19.36
2022-09-22T09:31:02.369Z,19.58
2022-09-22T09:33:35.199Z,19.69
2022-09-22T09:36:04.599Z,20.19
2022-09-22T09:38:37.867Z,20.11
2022-09-22T09:41:14.398Z,19.37
2022-09-22T09:43:45.629Z,18.60
2022-09-22T09:46:19.385Z,19.83
2022-09-22T09:49:02.987Z,19.93
2022-09-22T09:51:31.420Z,20.58
2022-09-22T09:54:05.552Z,20.75
2022-09-22T09:56:37.098Z,20.49
2022-09-22T09:59:24.725Z,20.65
2022-09-22T10:01:55.093Z,20.17
2022-09-22T10:04:30.400Z,21.08
2022-09-22T10:07:12.734Z,21.16
2022-09-22T10:09:41.925Z,20.96
2022-09-22T10:14:52.869Z,20.80
2022-09-22T10:17:23.140Z,20.42
2022-09-22T10:19:52.955Z,21.21
2022-09-22T10:22:26.725Z,21.16
2022-09-22T10:24:58.281Z,20.41
2022-09-22T10:27:28.992Z,21.30
2022-09-22T10:30:22.888Z,20.78
2022-09-22T10:33:12.420Z,20.96
2022-09-22T10:35:43.052Z,20.79
2022-09-22T10:38:22.314Z,21.33
2022-09-22T10:40:56.445Z,20.67
2022-09-22T10:43:38.943Z,21.87
2022-09-22T10:46:18.866Z,22.50
2022-09-22T10:48:50.267Z,20.59
2022-09-22T10:51:28.679Z,21.90
2022-09-22T10:54:16.393Z,21.56
2022-09-22T10:56:47.709Z,22.50
2022-09-22T10:59:39.139Z,22.41
2022-09-22T11:02:35.055Z,21.83
2022-09-22T11:05:40.441Z,21.53
2022-09-22T11:08:30.811Z,22.59
2022-09-22T11:11:21.967Z,21.45
2022-09-22T11:13:59.683Z,22.22
2022-09-22T11:16:42.017Z,21.88
2022-09-22T11:19:31.619Z,21.91
2022-09-22T11:22:13.600Z,21.93
2022-09-22T11:25:03.763Z,22.97
2022-09-22T11:27:43.950Z,22.07
2022-09-22T11:30:20.741Z,21.96
2022-09-22T11:33:13.195Z,22.53
2022-09-22T11:36:01.859Z,22.80
2022-09-22T11:38:53.917Z,21.92
2022-09-22T11:41:29.490Z,22.32
2022-09-22T11:44:29.550Z,21.80
2022-09-22T11:47:13.994Z,22.84
2022-09-22T11:49:56.182Z,22.59
2022-09-22T11:52:33.080Z,22.44
2022-09-22T11:55:14.903Z,21.99
2022-09-22T11:57:47.302Z,21.71
2022-09-22T12:00:19.004Z,22.59
2022-09-22T12:02:50.757Z,23.58
2022-09-22T12:05:21.649Z,23.40
2022-09-22T12:07:55.677Z,22.12
2022-09-22T12:10:33.596Z,23.74
2022-09-22T12:13:04.404Z,22.11
2022-09-22T12:15:36.363Z,23.15
2022-09-22T12:18:17.960Z,23.57
2022-09-22T12:21:00.536Z,22.77
2022-09-22T12:23:41.267Z,22.58
2022-09-22T12:26:11.536Z,22.37
2022-09-22T12:28:43.046Z,22.55
2022-09-22T12:31:14.161Z,22.28
2022-09-22T12:33:48.528Z,21.91
2022-09-22T12:36:17.695Z,22.70
2022-09-22T12:38:46.456Z,22.78
2022-09-22T12:41:18.923Z,22.80
2022-09-22T12:43:48.868Z,22.40
2022-09-22T12:46:34.832Z,23.52
2022-09-22T12:49:09.205Z,22.20
2022-09-22T12:51:39.519Z,22.43
2022-09-22T12:54:47.225Z,22.51
2022-09-22T12:57:28.851Z,22.73
2022-09-22T13:00:32.203Z,22.91
2022-09-22T13:03:02.210Z,22.71
2022-09-22T13:05:37.738Z,24.04
2022-09-22T13:08:06.138Z,23.30
2022-09-22T13:10:51.826Z,22.79
2022-09-22T13:13:42.931Z,23.54
2022-09-22T13:16:37.406Z,23.56
2022-09-22T13:19:11.020Z,23.39
2022-09-22T13:21:41.659Z,23.80
2022-09-22T13:24:23.665Z,24.08
2022-09-22T13:27:04.716Z,24.77
2022-09-22T13:29:34.490Z,24.48
2022-09-22T13:32:18.084Z,24.20
2022-09-22T13:34:46.824Z,24.71
2022-09-22T13:37:22.427Z,24.93
2022-09-22T13:39:52.771Z,24.15
2022-09-22T13:42:23.283Z,24.51
2022-09-22T13:44:57.764Z,24.44
2022-09-22T13:47:28.066Z,23.58
2022-09-22T13:49:58.517Z,23.98
2022-09-22T13:52:27.561Z,24.20
2022-09-22T13:54:57.874Z,23.14
2022-09-22T13:57:29.130Z,23.28
2022-09-22T13:59:59.823Z,22.84
2022-09-22T14:02:32.518Z,23.85
2022-09-22T14:05:04.100Z,24.15
2022-09-22T14:07:38.296Z,22.91
2022-09-22T14:10:17.542Z,23.53
2022-09-22T14:12:45.942Z,23.55
2022-09-22T14:15:44.541Z,23.28
2022-09-22T14:18:21.009Z,23.13
2022-09-22T14:20:49.650Z,23.74
2022-09-22T14:23:19.850Z,24.15
2022-09-22T14:25:48.138Z,24.99
2022-09-22T14:28:21.893Z,24.19
2022-09-22T14:30:50.809Z,23.19
2022-09-22T14:33:23.306Z,23.58
2022-09-22T14:35:52.861Z,23.69
2022-09-22T14:38:24.038Z,23.23
2022-09-22T14:40:54.109Z,22.78
2022-09-22T14:43:24.862Z,24.18
2022-09-22T14:46:00.635Z,23.66
2022-09-22T14:48:31.831Z,23.52
2022-09-22T14:51:02.722Z,24.26
2022-09-22T14:53:33.771Z,23.35
2022-09-22T14:56:06.000Z,23.37
2022-09-22T14:58:40.762Z,24.34
2022-09-22T15:01:38.074Z,24.29
2022-09-22T15:04:17.355Z,23.54
2022-09-22T15:06:47.913Z,23.93
2022-09-22T15:09:23.895Z,24.44
2022-09-22T15:11:54.831Z,24.54
2022-09-22T15:14:42.998Z,23.67
2022-09-22T15:17:54.879Z,24.61
2022-09-22T15:20:26.979Z,23.74
2022-09-22T15:22:55.432Z,23.84
2022-09-22T15:25:24.113Z,22.97
2022-09-22T15:27:53.456Z,22.83
2022-09-22T15:30:22.943Z,22.69
2022-09-22T15:32:51.267Z,22.79
2022-09-22T15:35:20.351Z,22.54
2022-09-22T15:37:50.888Z,22.65
2022-09-22T15:40:20.561Z,24.26
2022-09-22T15:43:11.234Z,22.71
2022-09-22T15:45:38.541Z,22.84
2022-09-22T15:48:06.936Z,23.00
2022-09-22T15:50:35.253Z,23.18
2022-09-22T15:53:04.942Z,23.03
2022-09-22T15:55:34.437Z,22.52
2022-09-22T15:58:07.399Z,22.45
2022-09-22T16:00:36.077Z,22.97
2022-09-22T16:03:09.784Z,22.71
2022-09-22T16:05:38.109Z,22.37
2022-09-22T16:08:08.396Z,22.92
2022-09-22T16:10:36.665Z,22.71
2022-09-22T16:13:05.893Z,22.73
2022-09-22T16:15:34.225Z,23.13
2022-09-22T16:18:02.484Z,22.62
2022-09-22T16:20:30.816Z,22.20
2022-09-22T16:22:59.135Z,22.62
2022-09-22T16:25:31.107Z,22.66
2022-09-22T16:27:59.380Z,22.84
2022-09-22T16:30:28.287Z,22.80
2022-09-22T16:32:56.562Z,22.84
2022-09-22T16:35:25.369Z,22.43
2022-09-22T16:37:57.244Z,23.26
2022-09-22T16:40:26.329Z,22.51
2022-09-22T16:42:56.031Z,22.30
2022-09-22T16:45:38.390Z,22.87
2022-09-22T16:48:07.605Z,22.61
2022-09-22T16:50:37.655Z,22.34
2022-09-22T16:53:07.917Z,22.46
2022-09-22T16:55:37.530Z,22.17
2022-09-22T16:58:13.168Z,22.41
2022-09-22T17:00:41.721Z,22.40
2022-09-22T17:03:10.099Z,22.32
2022-09-22T17:05:39.723Z,22.02
2022-09-22T17:08:08.479Z,21.93
2022-09-22T17:10:36.817Z,21.90
2022-09-22T17:13:05.279Z,21.87
2022-09-22T17:15:36.108Z,21.47
2022-09-22T17:18:04.983Z,21.51
2022-09-22T17:20:33.241Z,21.56
2022-09-22T17:23:02.042Z,21.55
2022-09-22T17:25:30.399Z,21.47
2022-09-22T17:27:59.094Z,21.32
2022-09-22T17:30:28.731Z,21.17
2022-09-22T17:32:58.378Z,21.12
2022-09-22T17:35:26.851Z,20.90
2022-09-22T17:37:55.191Z,20.70
2022-09-22T17:40:23.563Z,20.48
2022-09-22T17:42:51.875Z,20.29
2022-09-22T17:45:20.218Z,20.21
2022-09-22T17:48:06.043Z,19.97
2022-09-22T17:50:53.232Z,19.78
2022-09-22T17:53:39.034Z,19.65
2022-09-22T17:56:09.554Z,19.49
2022-09-22T17:58:40.780Z,19.38
2022-09-22T18:01:09.027Z,19.21
2022-09-22T18:03:37.309Z,19.16
2022-09-22T18:06:14.632Z,19.10
2022-09-22T18:08:44.614Z,18.87
2022-09-22T18:11:13.658Z,18.59
2022-09-22T18:16:36.729Z,18.46
2022-09-22T18:19:05.716Z,18.42
2022-09-22T18:21:35.449Z,18.40
2022-09-22T18:24:04.106Z,18.36
2022-09-22T18:26:38.349Z,18.14
2022-09-22T18:29:10.062Z,18.10
2022-09-22T18:31:38.870Z,17.81
2022-09-22T18:34:08.456Z,18.02
2022-09-22T18:36:44.800Z,17.98
2022-09-22T18:39:13.332Z,17.93
2022-09-22T18:41:41.987Z,17.78
2022-09-22T18:44:13.367Z,17.66
2022-09-22T18:46:42.277Z,17.44
2022-09-22T18:49:10.592Z,17.31
2022-09-22T18:51:42.688Z,17.36
2022-09-22T18:54:15.401Z,17.20
2022-09-22T18:56:45.798Z,17.12
2022-09-22T18:59:15.592Z,17.08
2022-09-22T19:01:44.609Z,17.13
2022-09-22T19:04:17.353Z,17.08
2022-09-22T19:07:05.279Z,17.01
2022-09-22T19:09:34.130Z,16.97
2022-09-22T19:12:04.206Z,16.92
2022-09-22T19:14:39.115Z,16.87
2022-09-22T19:17:08.894Z,16.87
2022-09-22T19:19:37.983Z,16.76
2022-09-22T19:22:09.066Z,16.73
2022-09-22T19:24:38.079Z,16.63
2022-09-22T19:27:08.670Z,16.57
2022-09-22T19:29:36.768Z,16.66
2022-09-22T19:32:05.987Z,16.46
2022-09-22T19:34:34.521Z,16.41
2022-09-22T19:37:02.885Z,16.31
2022-09-22T19:39:32.864Z,16.12
2022-09-22T19:42:01.462Z,15.80
2022-09-22T19:44:32.434Z,15.95
2022-09-22T19:47:00.783Z,15.99
2022-09-22T19:49:29.615Z,15.90
2022-09-22T19:51:57.956Z,15.79
2022-09-22T19:54:27.156Z,15.85
2022-09-22T19:56:57.001Z,15.69
2022-09-22T19:59:25.380Z,15.68
2022-09-22T20:01:55.069Z,15.71
2022-09-22T20:04:23.505Z,15.65
2022-09-22T20:06:52.022Z,15.39
2022-09-22T20:09:20.303Z,15.48
2022-09-22T20:11:52.294Z,15.05
2022-09-22T20:14:22.202Z,14.88
2022-09-22T20:16:52.735Z,14.84
2022-09-22T20:19:21.568Z,14.97
2022-09-22T20:21:51.508Z,15.17
2022-09-22T20:24:22.254Z,15.06
2022-09-22T20:26:50.710Z,15.25
2022-09-22T20:29:20.645Z,15.23
2022-09-22T20:31:50.355Z,15.27
2022-09-22T20:34:18.686Z,15.10
2022-09-22T20:36:46.971Z,15.04
2022-09-22T20:39:15.650Z,14.62
2022-09-22T20:41:44.776Z,14.00
2022-09-22T20:44:15.822Z,14.61
2022-09-22T20:46:44.186Z,14.35
2022-09-22T20:49:15.194Z,14.66
2022-09-22T20:51:43.630Z,14.44
2022-09-22T20:54:11.976Z,14.19
2022-09-22T20:56:42.769Z,14.39
2022-09-22T20:59:11.495Z,14.27
2022-09-22T21:01:39.858Z,14.35
2022-09-22T21:04:10.081Z,14.38
2022-09-22T21:06:42.542Z,14.52
2022-09-22T21:09:28.439Z,14.43
2022-09-22T21:11:56.882Z,14.49
2022-09-22T21:14:25.130Z,14.15
2022-09-22T21:16:53.496Z,14.29
2022-09-22T21:19:21.874Z,14.04
2022-09-22T21:21:53.062Z,14.01
2022-09-22T21:27:14.164Z,14.27
2022-09-22T21:29:42.560Z,14.33
2022-09-22T21:32:10.872Z,14.30
2022-09-22T21:34:39.234Z,14.20
2022-09-22T21:37:09.761Z,14.28
2022-09-22T21:39:38.118Z,14.29
2022-09-22T21:42:06.560Z,13.98
2022-09-22T21:44:34.848Z,13.82
2022-09-22T21:47:03.136Z,13.59
2022-09-22T21:49:31.443Z,13.61
2022-09-22T21:52:00.736Z,14.05
2022-09-22T21:54:31.173Z,14.10
2022-09-22T21:56:59.409Z,13.89
2022-09-22T21:59:27.683Z,13.82
2022-09-22T22:01:56.022Z,13.67
2022-09-22T22:04:24.496Z,13.75
2022-09-22T22:06:52.726Z,13.83
2022-09-22T22:09:22.478Z,13.73
2022-09-22T22:11:54.726Z,13.43
2022-09-22T22:14:24.375Z,13.46
2022-09-22T22:16:54.220Z,13.72
2022-09-22T22:19:25.790Z,13.75
2022-09-22T22:21:54.774Z,13.46
2022-09-22T22:24:29.302Z,13.34
2022-09-22T22:27:01.498Z,13.02
2022-09-22T22:29:31.675Z,12.87
2022-09-22T22:32:00.215Z,12.67
2022-09-22T22:34:28.580Z,13.11
2022-09-22T22:36:57.992Z,13.28
2022-09-22T22:39:26.395Z,13.28
2022-09-22T22:41:55.640Z,13.29
2022-09-22T22:44:25.451Z,13.31
2022-09-22T22:46:53.774Z,13.10
2022-09-22T22:49:22.151Z,12.93
2022-09-22T22:51:52.371Z,12.70
2022-09-22T22:54:20.768Z,12.04
2022-09-22T22:56:51.262Z,11.80
2022-09-22T22:59:20.016Z,11.49
2022-09-22T23:01:49.763Z,11.81
2022-09-22T23:04:18.236Z,11.87
2022-09-22T23:06:48.461Z,11.64
2022-09-22T23:09:17.959Z,12.08
2022-09-22T23:11:47.558Z,12.05
2022-09-22T23:14:16.488Z,12.28
2022-09-22T23:16:47.273Z,12.32
2022-09-22T23:19:18.148Z,12.62
2022-09-22T23:21:46.955Z,12.55
2022-09-22T23:24:16.935Z,12.31
2022-09-22T23:26:45.732Z,12.38
2022-09-22T23:29:14.626Z,12.56
2022-09-22T23:31:42.903Z,12.63
2022-09-22T23:34:11.215Z,12.43
2022-09-22T23:36:40.896Z,12.71
2022-09-22T23:39:09.140Z,12.07
2022-09-22T23:41:38.380Z,12.07
2022-09-22T23:44:07.422Z,12.28
2022-09-22T23:46:37.510Z,12.47
2022-09-22T23:49:06.425Z,12.54
2022-09-22T23:51:35.014Z,12.58
2022-09-22T23:54:04.889Z,12.65
2022-09-22T23:56:33.188Z,12.65
2022-09-22T23:59:01.481Z,12.65
